Time;durP1;ratioP1;P1;durP2;ratioP2;P2;SDS_P1;SDS_P2;PMS_P1;PMS_P2;Temp;Humidity;BMP_temperature;BMP_pressure;BME280_temperature;BME280_humidity;BME280_pressure;Samples;Min_cycle;Max_cycle;Signal;HPM_P1;HPM_P2
2022/04/29 00:02:22;;;;;;;22.55;10.18;;;;;;;;;;5045707;28;20021;-82
2022/04/29 00:04:47;;;;;;;22.73;10.52;;;;;;;;;;5012183;28;20369;-82
2022/04/29 00:07:13;;;;;;;27.48;10.88;;;;;;;;;;5012958;28;20501;-82
2022/04/29 00:09:38;;;;;;;22.73;11.43;;;;;;;;;;5013007;28;20022;-82
2022/04/29 00:12:05;;;;;;;21.45;9.52;;;;;;;;;;5011985;28;20400;-82
2022/04/29 00:14:30;;;;;;;24.80;10.65;;;;;;;;;;5013318;28;20022;-82
2022/04/29 00:16:55;;;;;;;25.77;11.13;;;;;;;;;;5012558;28;20392;-82
2022/04/29 00:19:20;;;;;;;22.98;10.82;;;;;;;;;;5012649;28;20466;-82
2022/04/29 00:21:46;;;;;;;24.30;11.30;;;;;;;;;;5012432;28;20030;-82
2022/04/29 00:24:11;;;;;;;26.67;10.48;;;;;;;;;;5012179;28;20168;-82
2022/04/29 00:26:37;;;;;;;26.88;10.30;;;;;;;;;;5012658;28;20120;-82
2022/04/29 00:29:02;;;;;;;21.13;11.00;;;;;;;;;;5012609;28;20025;-82
2022/04/29 00:31:28;;;;;;;21.95;10.00;;;;;;;;;;5012273;28;20026;-82
2022/04/29 00:33:54;;;;;;;17.65;10.20;;;;;;;;;;5011944;28;20028;-83
2022/04/29 00:36:19;;;;;;;20.98;10.43;;;;;;;;;;5012930;28;20432;-83
2022/04/29 00:38:44;;;;;;;28.00;9.60;;;;;;;;;;5012470;28;20362;-83
2022/04/29 00:41:09;;;;;;;24.15;10.38;;;;;;;;;;5012388;28;20374;-83
2022/04/29 00:43:35;;;;;;;21.08;9.65;;;;;;;;;;5011820;28;20017;-83
2022/04/29 00:46:00;;;;;;;23.73;10.00;;;;;;;;;;5012892;28;20065;-83
2022/04/29 00:48:25;;;;;;;27.55;10.80;;;;;;;;;;5011770;28;20021;-83
2022/04/29 00:50:50;;;;;;;23.95;10.27;;;;;;;;;;5013328;28;20025;-83
2022/04/29 00:53:18;;;;;;;29.67;10.65;;;;;;;;;;5011821;28;20029;-82
2022/04/29 00:55:44;;;;;;;17.73;9.52;;;;;;;;;;5011362;28;20065;-83
2022/04/29 00:58:17;;;;;;;18.92;10.23;;;;;;;;;;5012146;28;20026;-83
2022/04/29 01:00:43;;;;;;;22.15;10.90;;;;;;;;;;5044960;28;20034;-83
2022/04/29 01:03:10;;;;;;;19.52;9.93;;;;;;;;;;5011691;28;20018;-83
2022/04/29 01:05:37;;;;;;;23.05;10.00;;;;;;;;;;5012634;28;20478;-82
2022/04/29 01:08:02;;;;;;;19.45;9.73;;;;;;;;;;5012770;28;20014;-83
2022/04/29 01:10:27;;;;;;;18.77;9.10;;;;;;;;;;5011636;28;20021;-82
2022/04/29 01:12:57;;;;;;;21.55;9.10;;;;;;;;;;5011483;28;20026;-83
2022/04/29 01:15:22;;;;;;;23.02;8.73;;;;;;;;;;5011047;28;20037;-83
2022/04/29 01:17:49;;;;;;;20.73;9.93;;;;;;;;;;5011212;28;20396;-83
2022/04/29 01:20:16;;;;;;;20.95;8.93;;;;;;;;;;5011501;28;20555;-83
2022/04/29 01:22:42;;;;;;;20.02;8.65;;;;;;;;;;5010738;28;20051;-82
2022/04/29 01:25:07;;;;;;;27.95;8.02;;;;;;;;;;5010843;28;20022;-83
2022/04/29 01:27:32;;;;;;;21.65;8.70;;;;;;;;;;5011504;28;20525;-83
2022/04/29 01:30:03;;;;;;;16.65;8.80;;;;;;;;;;5011579;28;20133;-83
2022/04/29 01:32:30;;;;;;;18.98;8.25;;;;;;;;;;5011231;28;20013;-83
2022/04/29 01:34:55;;;;;;;19.90;7.65;;;;;;;;;;5010494;28;20025;-83
2022/04/29 01:37:21;;;;;;;20.52;7.53;;;;;;;;;;5054057;28;20387;-83
2022/04/29 01:39:47;;;;;;;14.45;6.32;;;;;;;;;;5064342;28;20031;-83
2022/04/29 01:42:12;;;;;;;15.40;7.30;;;;;;;;;;5063739;28;20469;-83
2022/04/29 01:44:37;;;;;;;18.58;6.90;;;;;;;;;;5047160;28;20029;-83
2022/04/29 01:47:02;;;;;;;15.57;7.43;;;;;;;;;;5063939;28;20084;-83
2022/04/29 01:49:27;;;;;;;14.93;7.63;;;;;;;;;;5063934;28;20571;-83
2022/04/29 01:51:54;;;;;;;16.67;6.85;;;;;;;;;;5046869;28;20040;-83
2022/04/29 01:54:19;;;;;;;13.60;6.57;;;;;;;;;;5063261;28;20044;-83
2022/04/29 01:56:47;;;;;;;17.40;6.70;;;;;;;;;;5064041;28;20409;-83
2022/04/29 01:59:12;;;;;;;19.55;7.82;;;;;;;;;;5064010;28;20013;-83
2022/04/29 02:01:37;;;;;;;17.15;7.88;;;;;;;;;;5031912;28;20524;-83
2022/04/29 02:04:03;;;;;;;17.52;7.30;;;;;;;;;;5063489;28;20025;-83
2022/04/29 02:06:28;;;;;;;18.63;7.72;;;;;;;;;;5064074;28;20018;-83
2022/04/29 02:08:54;;;;;;;14.52;6.50;;;;;;;;;;5063494;28;20018;-83
2022/04/29 02:11:20;;;;;;;25.17;8.05;;;;;;;;;;5031411;28;20025;-83
2022/04/29 02:13:45;;;;;;;15.48;8.27;;;;;;;;;;5063277;28;20021;-83
2022/04/29 02:16:11;;;;;;;17.85;7.88;;;;;;;;;;5031379;28;20075;-83
2022/04/29 02:18:36;;;;;;;14.10;7.57;;;;;;;;;;5063959;28;20148;-83
2022/04/29 02:21:01;;;;;;;24.60;8.65;;;;;;;;;;5063628;28;20036;-82
2022/04/29 02:23:26;;;;;;;17.33;7.60;;;;;;;;;;5046889;28;20030;-83
2022/04/29 02:25:52;;;;;;;14.43;8.02;;;;;;;;;;5063478;28;20036;-83
2022/04/29 02:28:17;;;;;;;15.63;8.75;;;;;;;;;;5062707;28;20017;-83
2022/04/29 02:30:43;;;;;;;22.80;8.20;;;;;;;;;;5063393;28;20400;-83
2022/04/29 02:33:08;;;;;;;23.23;8.35;;;;;;;;;;5063533;28;20021;-83
2022/04/29 02:35:33;;;;;;;20.38;8.23;;;;;;;;;;5065777;28;20025;-83
2022/04/29 02:37:58;;;;;;;18.63;8.00;;;;;;;;;;5067744;28;20030;-83
2022/04/29 02:40:24;;;;;;;18.73;6.85;;;;;;;;;;5067758;28;20025;-83
2022/04/29 02:42:50;;;;;;;14.05;6.78;;;;;;;;;;5035054;28;20403;-83
2022/04/29 02:45:15;;;;;;;14.93;6.70;;;;;;;;;;5066586;28;20018;-83
2022/04/29 02:47:40;;;;;;;19.13;7.10;;;;;;;;;;5067467;28;20044;-83
2022/04/29 02:50:05;;;;;;;19.30;6.97;;;;;;;;;;5067557;28;20525;-83
2022/04/29 02:52:31;;;;;;;19.05;7.28;;;;;;;;;;5050898;28;20068;-83
2022/04/29 02:54:56;;;;;;;24.00;7.40;;;;;;;;;;5034926;28;20457;-83
2022/04/29 02:57:21;;;;;;;20.63;8.10;;;;;;;;;;5050381;28;20358;-83
2022/04/29 02:59:46;;;;;;;22.40;7.45;;;;;;;;;;5067269;28;20030;-83
2022/04/29 03:02:12;;;;;;;16.52;7.43;;;;;;;;;;5034768;28;20017;-83
2022/04/29 03:04:37;;;;;;;23.55;8.48;;;;;;;;;;5066525;28;20120;-83
2022/04/29 03:07:02;;;;;;;14.90;7.32;;;;;;;;;;5066831;28;20021;-83
2022/04/29 03:09:27;;;;;;;18.95;7.40;;;;;;;;;;5034713;28;20129;-83
2022/04/29 03:11:53;;;;;;;16.85;7.35;;;;;;;;;;5066939;28;20131;-83
2022/04/29 03:14:18;;;;;;;17.70;5.95;;;;;;;;;;5034681;28;20063;-83
2022/04/29 03:16:43;;;;;;;16.38;6.70;;;;;;;;;;5066547;28;20130;-83
2022/04/29 03:19:09;;;;;;;11.63;5.82;;;;;;;;;;5066857;28;20453;-83
2022/04/29 03:21:34;;;;;;;17.33;6.97;;;;;;;;;;5066899;28;20060;-83
2022/04/29 03:24:03;;;;;;;17.33;6.80;;;;;;;;;;5066228;28;20021;-83
2022/04/29 03:26:29;;;;;;;16.00;7.97;;;;;;;;;;5034586;28;20099;-83
2022/04/29 03:28:54;;;;;;;15.43;6.60;;;;;;;;;;5066609;28;20061;-83
2022/04/29 03:31:19;;;;;;;18.08;6.88;;;;;;;;;;5066565;28;20029;-83
2022/04/29 03:33:45;;;;;;;17.08;7.40;;;;;;;;;;5034134;28;20033;-83
2022/04/29 03:36:10;;;;;;;19.83;7.03;;;;;;;;;;5049888;28;20029;-83
2022/04/29 03:38:36;;;;;;;15.80;7.45;;;;;;;;;;5049695;28;20021;-83
2022/04/29 03:41:01;;;;;;;18.58;7.35;;;;;;;;;;5066480;28;20025;-83
2022/04/29 03:43:27;;;;;;;16.42;7.93;;;;;;;;;;5066209;28;20572;-83
2022/04/29 03:45:53;;;;;;;20.38;7.90;;;;;;;;;;5048438;28;20028;-83
2022/04/29 03:48:18;;;;;;;19.95;7.68;;;;;;;;;;5066112;28;20116;-83
2022/04/29 03:50:43;;;;;;;15.65;6.55;;;;;;;;;;5034344;28;20033;-83
2022/04/29 03:53:08;;;;;;;18.35;6.82;;;;;;;;;;5066466;28;20025;-83
2022/04/29 03:55:34;;;;;;;18.80;7.13;;;;;;;;;;5049379;28;20048;-83
2022/04/29 03:57:59;;;;;;;17.67;6.50;;;;;;;;;;5066292;28;20487;-83
2022/04/29 04:00:32;;;;;;;14.43;7.53;;;;;;;;;;5066003;28;20025;-83
2022/04/29 04:02:58;;;;;;;16.33;7.35;;;;;;;;;;5066013;28;20048;-83
2022/04/29 04:05:23;;;;;;;16.80;7.80;;;;;;;;;;5065663;28;20064;-83
2022/04/29 04:07:49;;;;;;;17.30;8.40;;;;;;;;;;5033884;28;20071;-83
2022/04/29 04:10:14;;;;;;;19.58;7.47;;;;;;;;;;5065608;28;20028;-83
2022/04/29 04:12:43;;;;;;;18.60;7.97;;;;;;;;;;5065876;28;20036;-83
2022/04/29 04:15:09;;;;;;;23.33;8.82;;;;;;;;;;5033381;28;20021;-83
2022/04/29 04:17:35;;;;;;;16.10;7.20;;;;;;;;;;5065998;28;20028;-83
2022/04/29 04:20:00;;;;;;;19.20;7.80;;;;;;;;;;5065927;28;20603;-83
2022/04/29 04:22:27;;;;;;;16.20;6.97;;;;;;;;;;5033322;28;20021;-83
2022/04/29 04:24:52;;;;;;;13.32;7.75;;;;;;;;;;5064837;28;20057;-83
2022/04/29 04:27:17;;;;;;;22.17;8.45;;;;;;;;;;5065856;28;20068;-83
2022/04/29 04:29:43;;;;;;;15.75;8.48;;;;;;;;;;5065824;28;20018;-83
2022/04/29 04:32:08;;;;;;;18.80;8.07;;;;;;;;;;5065679;28;20406;-83
2022/04/29 04:34:52;;;;;;;24.17;8.15;;;;;;;;;;5064915;28;20108;-83
2022/04/29 04:37:19;;;;;;;20.52;8.50;;;;;;;;;;5064987;28;20025;-83
2022/04/29 04:39:44;;;;;;;14.98;6.90;;;;;;;;;;5065460;28;20033;-83
2022/04/29 04:42:10;;;;;;;22.33;8.07;;;;;;;;;;5065401;28;20140;-83
2022/04/29 04:44:35;;;;;;;16.90;8.18;;;;;;;;;;5032579;28;20092;-83
2022/04/29 04:47:00;;;;;;;16.35;8.13;;;;;;;;;;5033035;28;20023;-83
2022/04/29 04:49:26;;;;;;;19.98;8.55;;;;;;;;;;5065059;28;20017;-83
2022/04/29 04:51:51;;;;;;;25.92;8.75;;;;;;;;;;5032925;28;20013;-83
2022/04/29 04:54:16;;;;;;;24.23;8.18;;;;;;;;;;5048078;28;20028;-83
2022/04/29 04:56:41;;;;;;;15.65;7.82;;;;;;;;;;5065090;28;20052;-83
2022/04/29 04:59:06;;;;;;;16.52;8.25;;;;;;;;;;5048327;28;20530;-83
2022/04/29 05:01:32;;;;;;;17.63;7.78;;;;;;;;;;5032924;28;20476;-83
2022/04/29 05:03:57;;;;;;;20.20;8.43;;;;;;;;;;5032550;28;20040;-82
2022/04/29 05:06:22;;;;;;;16.40;8.05;;;;;;;;;;5032967;28;20026;-82
2022/04/29 05:08:47;;;;;;;21.05;8.68;;;;;;;;;;5064582;28;20437;-83
2022/04/29 05:11:12;;;;;;;23.38;8.65;;;;;;;;;;5064784;28;20503;-83
2022/04/29 05:13:37;;;;;;;20.08;8.70;;;;;;;;;;5032434;28;20064;-83
2022/04/29 05:16:03;;;;;;;24.20;9.50;;;;;;;;;;5064738;28;20024;-83
2022/04/29 05:18:28;;;;;;;19.58;8.80;;;;;;;;;;5064021;28;20021;-82
2022/04/29 05:20:54;;;;;;;20.42;9.73;;;;;;;;;;5064283;28;20026;-82
2022/04/29 05:23:19;;;;;;;17.40;8.70;;;;;;;;;;5064101;28;20086;-83
2022/04/29 05:25:44;;;;;;;19.92;9.70;;;;;;;;;;5064005;28;20030;-82
2022/04/29 05:28:09;;;;;;;20.85;9.02;;;;;;;;;;5032307;28;20370;-82
2022/04/29 05:30:35;;;;;;;23.48;8.90;;;;;;;;;;5032234;28;20017;-82
2022/04/29 05:33:01;;;;;;;17.45;8.93;;;;;;;;;;5032269;28;20025;-82
2022/04/29 05:35:26;;;;;;;22.70;9.38;;;;;;;;;;5064259;28;20279;-82
2022/04/29 05:37:51;;;;;;;17.48;9.32;;;;;;;;;;5064187;28;20026;-83
2022/04/29 05:43:01;;;;;;;39.42;11.45;;;;;;;;;;5032242;28;20092;-82
2022/04/29 05:45:26;;;;;;;21.77;8.93;;;;;;;;;;5030549;28;20030;-82
2022/04/29 05:47:51;;;;;;;19.30;9.43;;;;;;;;;;5064087;28;20453;-83
2022/04/29 05:50:16;;;;;;;19.83;9.23;;;;;;;;;;5047285;28;20026;-83
2022/04/29 05:52:41;;;;;;;19.80;9.43;;;;;;;;;;5032074;28;20029;-83
2022/04/29 05:55:07;;;;;;;23.27;9.48;;;;;;;;;;5046925;28;20033;-83
2022/04/29 05:57:32;;;;;;;22.00;10.35;;;;;;;;;;5064002;28;20031;-83
2022/04/29 05:59:59;;;;;;;27.38;9.68;;;;;;;;;;5030710;28;20121;-83
2022/04/29 06:02:24;;;;;;;19.58;8.95;;;;;;;;;;5063888;28;20108;-82
2022/04/29 06:04:50;;;;;;;15.32;7.60;;;;;;;;;;5046895;28;20112;-82
2022/04/29 06:07:15;;;;;;;20.00;9.18;;;;;;;;;;5063741;28;20079;-83
2022/04/29 06:09:40;;;;;;;19.10;9.13;;;;;;;;;;5063398;28;20017;-83
2022/04/29 06:12:06;;;;;;;21.83;9.45;;;;;;;;;;5031691;28;20095;-83
2022/04/29 06:14:31;;;;;;;16.77;9.00;;;;;;;;;;5042135;28;20468;-83
2022/04/29 06:16:56;;;;;;;19.65;9.15;;;;;;;;;;5030922;28;20465;-83
2022/04/29 06:19:22;;;;;;;23.15;9.05;;;;;;;;;;5046762;28;20025;-83
2022/04/29 06:21:47;;;;;;;18.08;8.73;;;;;;;;;;5026483;28;20468;-83
2022/04/29 06:24:12;;;;;;;22.45;8.05;;;;;;;;;;5062784;28;20026;-83
2022/04/29 06:26:37;;;;;;;22.00;7.40;;;;;;;;;;5046687;28;20025;-83
2022/04/29 06:29:03;;;;;;;17.35;8.80;;;;;;;;;;5037653;28;20025;-83
2022/04/29 06:31:28;;;;;;;17.92;7.72;;;;;;;;;;5030985;28;20071;-83
2022/04/29 06:33:53;;;;;;;25.42;9.23;;;;;;;;;;5038799;28;20107;-82
2022/04/29 06:36:18;;;;;;;23.08;9.38;;;;;;;;;;5036605;28;20064;-82
2022/04/29 06:38:43;;;;;;;31.38;9.68;;;;;;;;;;5031447;28;20032;-83
2022/04/29 06:41:09;;;;;;;23.40;9.35;;;;;;;;;;5024673;28;20026;-83
2022/04/29 06:43:34;;;;;;;23.40;10.57;;;;;;;;;;5011633;28;20432;-82
2022/04/29 06:45:59;;;;;;;22.00;9.65;;;;;;;;;;5019200;28;20469;-82
2022/04/29 06:48:25;;;;;;;21.33;8.85;;;;;;;;;;5041821;28;20112;-83
2022/04/29 06:50:50;;;;;;;18.67;8.45;;;;;;;;;;5027287;28;20060;-83
2022/04/29 06:53:15;;;;;;;22.75;9.55;;;;;;;;;;5019432;28;20029;-82
2022/04/29 06:55:40;;;;;;;24.95;9.85;;;;;;;;;;5029291;28;20025;-83
2022/04/29 06:58:06;;;;;;;19.30;9.20;;;;;;;;;;5023738;28;20028;-82
2022/04/29 07:00:32;;;;;;;23.23;9.68;;;;;;;;;;5063936;28;20476;-83
2022/04/29 07:02:57;;;;;;;20.85;9.43;;;;;;;;;;5057047;28;20048;-83
2022/04/29 07:05:23;;;;;;;34.47;10.50;;;;;;;;;;5035223;28;20025;-85
2022/04/29 07:07:49;;;;;;;20.95;7.97;;;;;;;;;;5046798;28;20017;-86
2022/04/29 07:10:15;;;;;;;23.00;11.43;;;;;;;;;;5036331;28;20017;-86
2022/04/29 07:12:43;;;;;;;22.95;9.90;;;;;;;;;;5041239;28;20052;-85
2022/04/29 07:15:10;;;;;;;25.42;10.73;;;;;;;;;;5032996;28;20044;-85
2022/04/29 07:17:35;;;;;;;20.88;8.73;;;;;;;;;;5040352;28;20399;-85
2022/04/29 07:20:00;;;;;;;25.10;10.43;;;;;;;;;;5043105;28;20029;-85
2022/04/29 07:22:26;;;;;;;28.92;11.32;;;;;;;;;;5037055;28;20025;-85
2022/04/29 07:24:51;;;;;;;20.35;10.57;;;;;;;;;;5036175;28;20024;-85
2022/04/29 07:27:16;;;;;;;21.52;11.07;;;;;;;;;;5036716;28;20045;-85
2022/04/29 07:29:41;;;;;;;25.30;11.60;;;;;;;;;;5039300;28;20021;-85
2022/04/29 07:32:07;;;;;;;23.65;11.27;;;;;;;;;;5047740;28;20025;-85
2022/04/29 07:42:44;;;;;;;23.05;9.68;;;;;;;;;;5048068;28;20036;-85
2022/04/29 07:45:09;;;;;;;24.90;10.50;;;;;;;;;;5020648;28;20018;-85
2022/04/29 07:47:36;;;;;;;30.15;11.68;;;;;;;;;;5014938;28;20017;-86
2022/04/29 07:50:01;;;;;;;33.40;11.52;;;;;;;;;;5029148;28;20017;-83
2022/04/29 07:52:27;;;;;;;34.22;12.20;;;;;;;;;;5052197;28;20033;-84
2022/04/29 07:54:55;;;;;;;25.90;10.98;;;;;;;;;;5051888;28;20032;-85
2022/04/29 07:57:20;;;;;;;25.77;11.65;;;;;;;;;;5054155;28;20059;-85
2022/04/29 07:59:45;;;;;;;27.88;11.43;;;;;;;;;;5053038;28;20021;-85
2022/04/29 08:02:10;;;;;;;25.85;11.73;;;;;;;;;;5034123;28;20025;-85
2022/04/29 08:04:35;;;;;;;30.83;12.23;;;;;;;;;;5034986;28;20026;-85
2022/04/29 08:07:02;;;;;;;25.35;10.93;;;;;;;;;;5014444;28;20024;-85
2022/04/29 08:09:27;;;;;;;29.55;9.98;;;;;;;;;;5034513;28;20026;-85
2022/04/29 08:11:53;;;;;;;29.15;10.85;;;;;;;;;;5036569;28;20139;-85
2022/04/29 08:14:20;;;;;;;35.20;12.18;;;;;;;;;;5038557;28;20350;-85
2022/04/29 08:16:45;;;;;;;28.30;11.80;;;;;;;;;;5038096;28;20396;-86
2022/04/29 08:19:11;;;;;;;24.85;12.25;;;;;;;;;;5047828;28;20017;-84
2022/04/29 08:21:36;;;;;;;31.65;13.48;;;;;;;;;;5052650;28;20028;-85
2022/04/29 08:24:02;;;;;;;25.75;12.30;;;;;;;;;;5040649;28;20025;-85
2022/04/29 08:26:28;;;;;;;25.08;12.02;;;;;;;;;;5021951;28;20050;-85
2022/04/29 08:28:54;;;;;;;29.30;11.18;;;;;;;;;;5013965;28;20097;-85
2022/04/29 08:31:21;;;;;;;23.83;11.52;;;;;;;;;;5039498;28;20016;-85
2022/04/29 08:33:46;;;;;;;24.25;11.85;;;;;;;;;;5045657;28;20551;-85
2022/04/29 08:36:11;;;;;;;29.15;11.75;;;;;;;;;;5033685;28;20061;-84
2022/04/29 08:38:36;;;;;;;20.27;10.18;;;;;;;;;;5033744;28;20148;-84
2022/04/29 08:41:03;;;;;;;25.08;11.60;;;;;;;;;;5040142;28;20029;-84
2022/04/29 08:43:28;;;;;;;24.90;12.15;;;;;;;;;;5070029;28;20059;-83
2022/04/29 08:45:53;;;;;;;21.38;11.88;;;;;;;;;;5042171;28;20435;-83
2022/04/29 08:48:19;;;;;;;29.08;13.07;;;;;;;;;;5033499;28;20059;-83
2022/04/29 08:50:44;;;;;;;29.15;12.82;;;;;;;;;;5034935;28;20104;-83
2022/04/29 08:53:09;;;;;;;32.33;13.48;;;;;;;;;;5039525;28;20080;-83
2022/04/29 08:58:37;;;;;;;28.58;12.30;;;;;;;;;;5022189;28;20512;-83
2022/04/29 09:01:20;;;;;;;31.58;11.07;;;;;;;;;;5019736;28;20032;-83
2022/04/29 09:03:46;;;;;;;22.83;12.20;;;;;;;;;;5013029;28;20037;-83
2022/04/29 09:06:12;;;;;;;36.50;12.70;;;;;;;;;;5013606;28;20189;-83
2022/04/29 09:08:41;;;;;;;27.67;12.57;;;;;;;;;;5011681;28;20069;-84
2022/04/29 09:11:06;;;;;;;27.33;12.70;;;;;;;;;;5011944;28;20110;-84
2022/04/29 09:13:35;;;;;;;31.85;13.35;;;;;;;;;;5011259;28;20081;-84
2022/04/29 09:16:07;;;;;;;30.23;13.15;;;;;;;;;;5011632;28;20472;-84
2022/04/29 09:18:34;;;;;;;36.22;12.50;;;;;;;;;;5011843;28;20026;-84
2022/04/29 09:21:02;;;;;;;28.48;12.18;;;;;;;;;;5044645;28;20105;-83
2022/04/29 09:23:28;;;;;;;28.17;11.95;;;;;;;;;;5011117;28;20036;-83
2022/04/29 09:25:55;;;;;;;28.67;12.50;;;;;;;;;;5011717;28;20018;-83
2022/04/29 09:28:22;;;;;;;33.85;12.45;;;;;;;;;;5011613;28;20416;-83
2022/04/29 09:30:48;;;;;;;28.40;12.77;;;;;;;;;;5012853;28;20033;-83
2022/04/29 09:33:24;;;;;;;28.02;10.93;;;;;;;;;;5043638;28;20025;-83
2022/04/29 09:35:49;;;;;;;29.42;11.63;;;;;;;;;;5011035;28;20053;-83
2022/04/29 09:40:59;;;;;;;26.23;11.68;;;;;;;;;;5012584;28;20067;-83
2022/04/29 09:43:31;;;;;;;37.60;12.02;;;;;;;;;;5010375;28;20142;-83
2022/04/29 09:46:08;;;;;;;26.50;12.23;;;;;;;;;;5011614;28;20084;-84
2022/04/29 09:48:49;;;;;;;22.23;10.73;;;;;;;;;;5012209;28;20025;-84
2022/04/29 09:51:14;;;;;;;31.17;12.80;;;;;;;;;;5012409;28;20068;-83
2022/04/29 09:53:39;;;;;;;38.20;13.30;;;;;;;;;;5012244;28;20049;-83
2022/04/29 09:56:12;;;;;;;31.40;12.93;;;;;;;;;;5010702;28;20030;-83
2022/04/29 09:58:37;;;;;;;29.70;13.32;;;;;;;;;;5010958;28;20359;-83
2022/04/29 10:01:04;;;;;;;27.20;12.75;;;;;;;;;;5010469;28;20128;-83
2022/04/29 10:03:29;;;;;;;28.23;12.43;;;;;;;;;;5010385;28;20386;-83
2022/04/29 10:05:55;;;;;;;31.30;13.57;;;;;;;;;;5010839;28;20025;-84
2022/04/29 10:08:24;;;;;;;39.55;12.80;;;;;;;;;;5011037;28;20592;-83
2022/04/29 10:10:50;;;;;;;30.98;13.00;;;;;;;;;;5010714;28;20021;-84
2022/04/29 10:13:18;;;;;;;32.00;14.23;;;;;;;;;;5010611;28;20026;-83
2022/04/29 10:15:46;;;;;;;26.85;12.15;;;;;;;;;;5011060;28;20081;-83
2022/04/29 10:21:15;;;;;;;29.30;13.13;;;;;;;;;;5012310;28;20032;-84
2022/04/29 10:23:41;;;;;;;32.22;13.55;;;;;;;;;;5010089;28;20030;-83
2022/04/29 10:26:07;;;;;;;26.88;10.93;;;;;;;;;;5010940;28;20050;-83
2022/04/29 10:28:32;;;;;;;29.25;12.15;;;;;;;;;;5043657;28;20119;-83
2022/04/29 10:31:02;;;;;;;28.33;12.85;;;;;;;;;;5010811;28;20026;-84
2022/04/29 10:33:27;;;;;;;27.80;11.27;;;;;;;;;;5010036;28;20025;-84
2022/04/29 10:35:53;;;;;;;22.45;9.73;;;;;;;;;;5010786;28;20124;-84
2022/04/29 10:38:23;;;;;;;28.13;10.20;;;;;;;;;;5010621;28;20172;-84
2022/04/29 10:41:07;;;;;;;26.90;12.73;;;;;;;;;;5010670;28;20121;-83
2022/04/29 10:43:39;;;;;;;24.23;13.15;;;;;;;;;;5009966;28;20033;-84
2022/04/29 10:46:05;;;;;;;25.02;12.85;;;;;;;;;;5011575;28;20030;-84
2022/04/29 10:48:34;;;;;;;34.05;13.38;;;;;;;;;;5043641;28;20033;-84
2022/04/29 10:51:09;;;;;;;30.63;12.85;;;;;;;;;;5012003;28;20033;-84
2022/04/29 10:53:38;;;;;;;36.50;14.52;;;;;;;;;;5009676;28;20026;-84
2022/04/29 10:56:22;;;;;;;29.67;14.10;;;;;;;;;;5011765;28;20029;-84
2022/04/29 10:58:48;;;;;;;26.70;13.95;;;;;;;;;;5047170;28;20504;-84
2022/04/29 11:01:23;;;;;;;38.05;13.40;;;;;;;;;;5014015;28;20026;-84
2022/04/29 11:03:49;;;;;;;28.90;14.23;;;;;;;;;;5046466;28;20075;-83
2022/04/29 11:06:14;;;;;;;35.03;13.65;;;;;;;;;;5014039;28;20022;-83
2022/04/29 11:08:40;;;;;;;33.75;14.38;;;;;;;;;;5013841;28;20029;-83
2022/04/29 11:11:06;;;;;;;27.65;14.27;;;;;;;;;;5013578;28;20030;-83
2022/04/29 11:13:34;;;;;;;24.65;11.65;;;;;;;;;;5013361;28;20393;-83
2022/04/29 11:16:12;;;;;;;31.60;13.18;;;;;;;;;;5014024;28;20030;-84
2022/04/29 11:18:40;;;;;;;32.92;14.75;;;;;;;;;;5013631;28;20041;-84
2022/04/29 11:26:47;;;;;;;29.40;14.77;;;;;;;;;;5015283;28;20397;-84
2022/04/29 11:29:13;;;;;;;32.72;13.43;;;;;;;;;;5013634;28;20026;-83
2022/04/29 11:31:38;;;;;;;27.88;12.38;;;;;;;;;;5013715;28;20125;-83
2022/04/29 11:34:05;;;;;;;28.83;16.10;;;;;;;;;;5014385;28;20025;-83
2022/04/29 11:36:30;;;;;;;25.55;11.18;;;;;;;;;;5014803;28;20022;-83
2022/04/29 11:38:55;;;;;;;26.25;12.02;;;;;;;;;;5013465;28;20121;-83
2022/04/29 11:41:22;;;;;;;38.35;13.90;;;;;;;;;;5013275;28;20021;-83
2022/04/29 11:43:48;;;;;;;34.80;14.68;;;;;;;;;;5013105;28;20021;-83
2022/04/29 11:46:14;;;;;;;30.13;14.98;;;;;;;;;;5013902;28;20084;-82
2022/04/29 11:48:49;;;;;;;30.05;14.15;;;;;;;;;;5013434;28;20026;-83
2022/04/29 11:51:14;;;;;;;37.20;16.33;;;;;;;;;;5013278;28;20600;-83
2022/04/29 11:53:55;;;;;;;33.53;15.23;;;;;;;;;;5014506;28;20105;-83
2022/04/29 11:56:20;;;;;;;38.33;15.10;;;;;;;;;;5014438;28;20034;-83
2022/04/29 11:58:45;;;;;;;36.95;13.38;;;;;;;;;;5013432;28;20029;-83
2022/04/29 12:01:14;;;;;;;32.75;11.73;;;;;;;;;;5013201;28;20064;-83
2022/04/29 12:03:45;;;;;;;39.13;13.05;;;;;;;;;;5012709;28;20022;-83
2022/04/29 12:06:10;;;;;;;27.10;14.75;;;;;;;;;;5013194;28;20025;-83
2022/04/29 12:08:39;;;;;;;39.20;14.35;;;;;;;;;;5012219;28;20362;-83
2022/04/29 12:11:04;;;;;;;38.10;14.43;;;;;;;;;;5012654;28;20117;-83
2022/04/29 12:13:30;;;;;;;31.20;12.85;;;;;;;;;;5013825;28;20125;-83
2022/04/29 12:15:56;;;;;;;31.02;13.52;;;;;;;;;;5012864;28;20030;-84
2022/04/29 12:18:36;;;;;;;31.83;14.48;;;;;;;;;;5012907;28;20485;-83
2022/04/29 12:21:01;;;;;;;38.80;15.32;;;;;;;;;;5012890;28;20029;-83
2022/04/29 12:23:31;;;;;;;26.70;12.48;;;;;;;;;;5013622;28;20032;-83
2022/04/29 12:25:59;;;;;;;34.90;14.85;;;;;;;;;;5012688;28;20592;-83
2022/04/29 12:28:28;;;;;;;36.90;15.15;;;;;;;;;;5045819;28;20022;-83
2022/04/29 12:36:31;;;;;;;27.67;12.45;;;;;;;;;;5013763;28;20061;-83
2022/04/29 12:39:03;;;;;;;39.42;16.52;;;;;;;;;;5013856;28;20034;-83
2022/04/29 12:41:29;;;;;;;27.98;14.40;;;;;;;;;;5012730;28;20084;-83
2022/04/29 12:44:05;;;;;;;22.95;13.50;;;;;;;;;;5012884;28;20014;-83
2022/04/29 12:46:31;;;;;;;41.08;16.25;;;;;;;;;;5011872;28;20026;-83
2022/04/29 12:48:56;;;;;;;29.17;14.35;;;;;;;;;;5012456;28;20437;-83
2022/04/29 12:51:32;;;;;;;36.65;16.10;;;;;;;;;;5045777;28;20025;-83
2022/04/29 12:54:17;;;;;;;31.15;15.80;;;;;;;;;;5011656;28;20362;-83
2022/04/29 12:56:49;;;;;;;32.45;11.82;;;;;;;;;;5012390;28;20037;-83
2022/04/29 12:59:15;;;;;;;;;;;;;;;;;;5012308;28;20022;-83
2022/04/29 13:01:40;;;;;;;34.47;15.55;;;;;;;;;;5045109;28;19905;-83
2022/04/29 13:04:06;;;;;;;27.70;12.18;;;;;;;;;;5011608;28;20021;-83
2022/04/29 13:06:31;;;;;;;36.53;11.63;;;;;;;;;;5011878;28;20021;-83
2022/04/29 13:08:57;;;;;;;27.58;14.93;;;;;;;;;;5012935;28;20022;-84
2022/04/29 13:11:23;;;;;;;34.22;15.90;;;;;;;;;;5011912;28;20030;-83
2022/04/29 13:13:49;;;;;;;28.30;13.65;;;;;;;;;;5011399;28;20025;-84
2022/04/29 13:16:15;;;;;;;29.85;13.68;;;;;;;;;;5011723;28;20473;-84
2022/04/29 13:18:40;;;;;;;27.67;12.48;;;;;;;;;;5010982;28;20033;-83
2022/04/29 13:21:09;;;;;;;24.60;12.13;;;;;;;;;;5011232;28;20021;-84
2022/04/29 13:23:38;;;;;;;29.98;15.25;;;;;;;;;;5011271;28;20076;-84
2022/04/29 13:26:03;;;;;;;25.58;12.68;;;;;;;;;;5012822;28;20014;-83
2022/04/29 13:28:29;;;;;;;31.25;15.20;;;;;;;;;;5012370;28;20453;-84
2022/04/29 13:30:55;;;;;;;29.35;13.60;;;;;;;;;;5011218;28;20495;-83
2022/04/29 13:33:20;;;;;;;33.85;11.02;;;;;;;;;;5011010;28;20108;-83
2022/04/29 13:35:45;;;;;;;31.45;12.50;;;;;;;;;;5012656;28;20373;-84
2022/04/29 13:38:11;;;;;;;28.90;12.32;;;;;;;;;;5011222;28;20393;-83
2022/04/29 13:40:36;;;;;;;23.90;11.25;;;;;;;;;;5011184;28;20021;-84
2022/04/29 13:43:04;;;;;;;31.73;13.48;;;;;;;;;;5010681;28;20040;-83
2022/04/29 13:45:29;;;;;;;31.27;12.77;;;;;;;;;;5011367;28;20018;-84
2022/04/29 13:47:54;;;;;;;24.88;11.88;;;;;;;;;;5011200;28;20490;-84
2022/04/29 13:50:20;;;;;;;28.10;12.90;;;;;;;;;;5010560;28;20026;-83
2022/04/29 13:55:30;;;;;;;31.40;15.30;;;;;;;;;;5012908;28;20107;-84
2022/04/29 13:57:56;;;;;;;32.53;15.40;;;;;;;;;;5012250;28;20022;-84
2022/04/29 14:00:21;;;;;;;33.83;13.45;;;;;;;;;;5010476;28;20022;-84
2022/04/29 14:02:47;;;;;;;22.20;11.68;;;;;;;;;;5011453;28;20022;-83
2022/04/29 14:05:12;;;;;;;27.25;11.63;;;;;;;;;;5011206;28;20021;-84
2022/04/29 14:07:38;;;;;;;32.55;12.80;;;;;;;;;;5044114;28;20048;-84
2022/04/29 14:10:04;;;;;;;30.10;14.32;;;;;;;;;;5011039;28;20045;-84
2022/04/29 14:12:29;;;;;;;37.50;13.90;;;;;;;;;;5010866;28;20145;-84
2022/04/29 14:14:58;;;;;;;26.15;12.30;;;;;;;;;;5010416;28;20024;-84
2022/04/29 14:17:23;;;;;;;27.52;14.75;;;;;;;;;;5010896;28;20033;-84
2022/04/29 14:19:48;;;;;;;24.95;11.80;;;;;;;;;;5010887;28;20413;-83
2022/04/29 14:22:14;;;;;;;34.97;16.08;;;;;;;;;;5043446;28;20108;-83
2022/04/29 14:24:40;;;;;;;35.88;13.50;;;;;;;;;;5010666;28;20018;-84
2022/04/29 14:27:05;;;;;;;33.15;11.07;;;;;;;;;;5012154;28;20022;-84
2022/04/29 14:29:35;;;;;;;24.65;10.23;;;;;;;;;;5011018;28;20022;-84
2022/04/29 14:32:01;;;;;;;22.80;11.25;;;;;;;;;;5014311;28;20424;-84
2022/04/29 14:34:28;;;;;;;28.50;10.65;;;;;;;;;;5047368;28;20072;-84
2022/04/29 14:36:53;;;;;;;25.25;11.05;;;;;;;;;;5014925;28;20057;-84
2022/04/29 14:39:19;;;;;;;24.15;12.70;;;;;;;;;;5015986;28;20064;-84
2022/04/29 14:41:45;;;;;;;24.77;11.73;;;;;;;;;;5014505;28;20057;-84
2022/04/29 14:44:12;;;;;;;25.02;11.63;;;;;;;;;;5014239;28;20121;-84
2022/04/29 14:46:37;;;;;;;25.27;10.60;;;;;;;;;;5014578;28;20465;-84
2022/04/29 14:49:03;;;;;;;36.47;13.23;;;;;;;;;;5014297;28;20107;-84
2022/04/29 14:51:29;;;;;;;25.48;12.23;;;;;;;;;;5014398;28;20079;-83
2022/04/29 14:53:54;;;;;;;20.70;11.05;;;;;;;;;;5015557;28;20172;-83